sensor_id;sensor_type;location;lat;lon;timestamp;P1;durP1;ratioP1;P2;durP2;ratioP2
9248;SDS011;4660;41.768;26.198;2022-08-26T00:01:48;14.77;;;11.18;;
9248;SDS011;4660;41.768;26.198;2022-08-26T00:04:13;15.38;;;10.45;;
9248;SDS011;4660;41.768;26.198;2022-08-26T00:06:39;22.20;;;11.95;;
9248;SDS011;4660;41.768;26.198;2022-08-26T00:09:04;17.98;;;10.07;;
9248;SDS011;4660;41.768;26.198;2022-08-26T00:11:30;12.57;;;10.60;;
9248;SDS011;4660;41.768;26.198;2022-08-26T00:13:56;14.57;;;9.88;;
9248;SDS011;4660;41.768;26.198;2022-08-26T00:16:23;16.50;;;9.75;;
9248;SDS011;4660;41.768;26.198;2022-08-26T00:18:49;13.30;;;9.73;;
9248;SDS011;4660;41.768;26.198;2022-08-26T00:21:15;16.30;;;10.00;;
9248;SDS011;4660;41.768;26.198;2022-08-26T00:23:41;13.98;;;9.93;;
9248;SDS011;4660;41.768;26.198;2022-08-26T00:26:07;14.07;;;9.68;;
9248;SDS011;4660;41.768;26.198;2022-08-26T00:28:33;12.95;;;9.23;;
9248;SDS011;4660;41.768;26.198;2022-08-26T00:30:58;17.55;;;9.30;;
9248;SDS011;4660;41.768;26.198;2022-08-26T00:33:24;16.45;;;8.88;;
9248;SDS011;4660;41.768;26.198;2022-08-26T00:35:49;12.43;;;8.90;;
9248;SDS011;4660;41.768;26.198;2022-08-26T00:38:15;11.75;;;8.73;;
9248;SDS011;4660;41.768;26.198;2022-08-26T00:40:46;13.85;;;8.50;;
9248;SDS011;4660;41.768;26.198;2022-08-26T00:43:14;16.48;;;9.18;;
9248;SDS011;4660;41.768;26.198;2022-08-26T00:45:50;15.15;;;8.70;;
9248;SDS011;4660;41.768;26.198;2022-08-26T00:48:22;15.02;;;9.15;;
9248;SDS011;4660;41.768;26.198;2022-08-26T00:50:54;13.40;;;9.07;;
9248;SDS011;4660;41.768;26.198;2022-08-26T00:53:24;14.10;;;9.07;;
9248;SDS011;4660;41.768;26.198;2022-08-26T00:58:54;13.43;;;8.90;;
9248;SDS011;4660;41.768;26.198;2022-08-26T01:01:22;11.23;;;8.77;;
9248;SDS011;4660;41.768;26.198;2022-08-26T01:03:50;14.93;;;9.93;;
9248;SDS011;4660;41.768;26.198;2022-08-26T01:06:16;12.82;;;9.23;;
9248;SDS011;4660;41.768;26.198;2022-08-26T01:08:43;11.50;;;8.85;;
9248;SDS011;4660;41.768;26.198;2022-08-26T01:11:09;17.85;;;10.63;;
9248;SDS011;4660;41.768;26.198;2022-08-26T01:13:35;15.98;;;10.25;;
9248;SDS011;4660;41.768;26.198;2022-08-26T01:16:03;14.77;;;9.38;;
9248;SDS011;4660;41.768;26.198;2022-08-26T01:18:31;14.60;;;9.50;;
9248;SDS011;4660;41.768;26.198;2022-08-26T01:21:09;13.95;;;10.15;;
9248;SDS011;4660;41.768;26.198;2022-08-26T01:23:49;13.93;;;10.45;;
9248;SDS011;4660;41.768;26.198;2022-08-26T01:26:33;14.50;;;9.68;;
9248;SDS011;4660;41.768;26.198;2022-08-26T01:29:02;14.40;;;9.23;;
9248;SDS011;4660;41.768;26.198;2022-08-26T01:31:31;16.58;;;9.93;;
9248;SDS011;4660;41.768;26.198;2022-08-26T01:36:48;18.92;;;10.45;;
9248;SDS011;4660;41.768;26.198;2022-08-26T01:39:16;11.95;;;9.63;;
9248;SDS011;4660;41.768;26.198;2022-08-26T01:41:42;20.05;;;9.38;;
9248;SDS011;4660;41.768;26.198;2022-08-26T01:44:12;12.02;;;9.40;;
9248;SDS011;4660;41.768;26.198;2022-08-26T01:46:43;12.85;;;9.13;;
9248;SDS011;4660;41.768;26.198;2022-08-26T01:49:12;15.65;;;9.00;;
9248;SDS011;4660;41.768;26.198;2022-08-26T01:51:39;12.07;;;8.88;;
9248;SDS011;4660;41.768;26.198;2022-08-26T01:54:07;12.48;;;8.65;;
9248;SDS011;4660;41.768;26.198;2022-08-26T01:56:34;18.38;;;8.70;;
9248;SDS011;4660;41.768;26.198;2022-08-26T01:59:01;10.93;;;8.38;;
9248;SDS011;4660;41.768;26.198;2022-08-26T02:01:31;15.25;;;9.13;;
9248;SDS011;4660;41.768;26.198;2022-08-26T02:06:52;15.60;;;8.85;;
9248;SDS011;4660;41.768;26.198;2022-08-26T02:09:21;17.42;;;8.98;;
9248;SDS011;4660;41.768;26.198;2022-08-26T02:11:48;17.30;;;9.20;;
9248;SDS011;4660;41.768;26.198;2022-08-26T02:14:17;12.45;;;7.82;;
9248;SDS011;4660;41.768;26.198;2022-08-26T02:16:46;11.18;;;7.78;;
9248;SDS011;4660;41.768;26.198;2022-08-26T02:19:16;14.18;;;8.05;;
9248;SDS011;4660;41.768;26.198;2022-08-26T02:21:45;17.67;;;8.13;;
9248;SDS011;4660;41.768;26.198;2022-08-26T02:24:14;9.55;;;7.78;;
9248;SDS011;4660;41.768;26.198;2022-08-26T02:26:43;17.40;;;8.50;;
9248;SDS011;4660;41.768;26.198;2022-08-26T02:31:59;19.00;;;5.95;;
9248;SDS011;4660;41.768;26.198;2022-08-26T02:34:29;18.70;;;5.57;;
9248;SDS011;4660;41.768;26.198;2022-08-26T02:36:57;19.27;;;5.22;;
9248;SDS011;4660;41.768;26.198;2022-08-26T02:39:24;16.40;;;4.20;;
9248;SDS011;4660;41.768;26.198;2022-08-26T02:41:50;17.02;;;4.75;;
9248;SDS011;4660;41.768;26.198;2022-08-26T02:44:15;19.08;;;4.55;;
9248;SDS011;4660;41.768;26.198;2022-08-26T02:46:41;13.38;;;3.97;;
9248;SDS011;4660;41.768;26.198;2022-08-26T02:49:08;15.32;;;4.88;;
9248;SDS011;4660;41.768;26.198;2022-08-26T02:51:33;21.40;;;4.05;;
9248;SDS011;4660;41.768;26.198;2022-08-26T02:53:59;11.90;;;3.78;;
9248;SDS011;4660;41.768;26.198;2022-08-26T02:56:24;16.55;;;3.92;;
9248;SDS011;4660;41.768;26.198;2022-08-26T02:58:50;12.65;;;4.13;;
9248;SDS011;4660;41.768;26.198;2022-08-26T03:01:22;15.25;;;3.95;;
9248;SDS011;4660;41.768;26.198;2022-08-26T03:03:51;13.95;;;4.97;;
9248;SDS011;4660;41.768;26.198;2022-08-26T03:06:17;22.13;;;4.82;;
9248;SDS011;4660;41.768;26.198;2022-08-26T03:08:43;17.13;;;4.38;;
9248;SDS011;4660;41.768;26.198;2022-08-26T03:11:09;16.63;;;3.95;;
9248;SDS011;4660;41.768;26.198;2022-08-26T03:13:36;12.38;;;3.65;;
9248;SDS011;4660;41.768;26.198;2022-08-26T03:16:02;13.25;;;4.15;;
9248;SDS011;4660;41.768;26.198;2022-08-26T03:18:27;20.55;;;4.38;;
9248;SDS011;4660;41.768;26.198;2022-08-26T03:20:53;17.75;;;4.00;;
9248;SDS011;4660;41.768;26.198;2022-08-26T03:23:19;14.88;;;4.20;;
9248;SDS011;4660;41.768;26.198;2022-08-26T03:25:48;12.23;;;3.65;;
9248;SDS011;4660;41.768;26.198;2022-08-26T03:28:18;10.40;;;4.28;;
9248;SDS011;4660;41.768;26.198;2022-08-26T03:30:44;20.27;;;4.68;;
9248;SDS011;4660;41.768;26.198;2022-08-26T03:33:10;14.52;;;4.15;;
9248;SDS011;4660;41.768;26.198;2022-08-26T03:35:36;18.58;;;4.53;;
9248;SDS011;4660;41.768;26.198;2022-08-26T03:38:04;17.30;;;4.38;;
9248;SDS011;4660;41.768;26.198;2022-08-26T03:40:32;14.10;;;4.00;;
9248;SDS011;4660;41.768;26.198;2022-08-26T03:43:00;20.73;;;4.20;;
9248;SDS011;4660;41.768;26.198;2022-08-26T03:45:26;16.15;;;3.90;;
9248;SDS011;4660;41.768;26.198;2022-08-26T03:47:52;15.73;;;4.07;;
9248;SDS011;4660;41.768;26.198;2022-08-26T03:50:19;18.17;;;4.07;;
9248;SDS011;4660;41.768;26.198;2022-08-26T03:52:46;13.93;;;3.75;;
9248;SDS011;4660;41.768;26.198;2022-08-26T03:55:12;12.32;;;3.88;;
9248;SDS011;4660;41.768;26.198;2022-08-26T03:57:39;13.30;;;3.70;;
9248;SDS011;4660;41.768;26.198;2022-08-26T04:00:06;14.05;;;3.50;;
9248;SDS011;4660;41.768;26.198;2022-08-26T04:02:35;11.88;;;3.22;;
9248;SDS011;4660;41.768;26.198;2022-08-26T04:05:01;11.63;;;3.45;;
9248;SDS011;4660;41.768;26.198;2022-08-26T04:07:27;12.35;;;3.90;;
9248;SDS011;4660;41.768;26.198;2022-08-26T04:09:56;11.00;;;3.13;;
9248;SDS011;4660;41.768;26.198;2022-08-26T04:12:22;10.52;;;3.92;;
9248;SDS011;4660;41.768;26.198;2022-08-26T04:14:50;14.68;;;4.78;;
9248;SDS011;4660;41.768;26.198;2022-08-26T04:17:17;17.15;;;3.58;;
9248;SDS011;4660;41.768;26.198;2022-08-26T04:19:43;8.63;;;3.22;;
9248;SDS011;4660;41.768;26.198;2022-08-26T04:22:09;12.57;;;3.28;;
9248;SDS011;4660;41.768;26.198;2022-08-26T04:24:34;11.85;;;3.50;;
9248;SDS011;4660;41.768;26.198;2022-08-26T04:27:00;7.53;;;3.72;;
9248;SDS011;4660;41.768;26.198;2022-08-26T04:29:27;15.10;;;3.60;;
9248;SDS011;4660;41.768;26.198;2022-08-26T04:31:54;13.93;;;4.13;;
9248;SDS011;4660;41.768;26.198;2022-08-26T04:34:20;16.70;;;3.67;;
9248;SDS011;4660;41.768;26.198;2022-08-26T04:36:47;9.27;;;3.75;;
9248;SDS011;4660;41.768;26.198;2022-08-26T04:39:13;15.02;;;3.53;;
9248;SDS011;4660;41.768;26.198;2022-08-26T04:41:41;11.27;;;3.42;;
9248;SDS011;4660;41.768;26.198;2022-08-26T04:44:11;13.38;;;3.58;;
9248;SDS011;4660;41.768;26.198;2022-08-26T04:46:37;16.15;;;3.95;;
9248;SDS011;4660;41.768;26.198;2022-08-26T04:49:03;22.35;;;3.88;;
9248;SDS011;4660;41.768;26.198;2022-08-26T04:51:32;11.75;;;4.10;;
9248;SDS011;4660;41.768;26.198;2022-08-26T04:54:00;19.92;;;4.72;;
9248;SDS011;4660;41.768;26.198;2022-08-26T04:56:29;9.60;;;3.50;;
9248;SDS011;4660;41.768;26.198;2022-08-26T04:58:57;9.65;;;3.67;;
9248;SDS011;4660;41.768;26.198;2022-08-26T05:01:22;11.27;;;3.20;;
9248;SDS011;4660;41.768;26.198;2022-08-26T05:03:49;19.85;;;4.15;;
9248;SDS011;4660;41.768;26.198;2022-08-26T05:06:15;13.90;;;3.47;;
9248;SDS011;4660;41.768;26.198;2022-08-26T05:08:41;11.50;;;3.53;;
9248;SDS011;4660;41.768;26.198;2022-08-26T05:11:07;19.67;;;4.32;;
9248;SDS011;4660;41.768;26.198;2022-08-26T05:13:33;13.60;;;3.60;;
9248;SDS011;4660;41.768;26.198;2022-08-26T05:16:03;18.40;;;3.70;;
9248;SDS011;4660;41.768;26.198;2022-08-26T05:18:30;16.75;;;3.40;;
9248;SDS011;4660;41.768;26.198;2022-08-26T05:20:58;9.95;;;3.50;;
9248;SDS011;4660;41.768;26.198;2022-08-26T05:23:25;10.50;;;3.10;;
9248;SDS011;4660;41.768;26.198;2022-08-26T05:25:52;12.05;;;3.15;;
9248;SDS011;4660;41.768;26.198;2022-08-26T05:28:19;11.95;;;3.63;;
9248;SDS011;4660;41.768;26.198;2022-08-26T05:30:46;15.88;;;3.90;;
9248;SDS011;4660;41.768;26.198;2022-08-26T05:33:13;9.98;;;3.50;;
9248;SDS011;4660;41.768;26.198;2022-08-26T05:35:39;14.27;;;3.83;;
9248;SDS011;4660;41.768;26.198;2022-08-26T05:38:07;16.42;;;3.47;;
9248;SDS011;4660;41.768;26.198;2022-08-26T05:40:37;17.05;;;3.60;;
9248;SDS011;4660;41.768;26.198;2022-08-26T05:43:08;9.65;;;2.95;;
9248;SDS011;4660;41.768;26.198;2022-08-26T05:45:39;13.55;;;3.20;;
9248;SDS011;4660;41.768;26.198;2022-08-26T05:48:07;8.55;;;2.97;;
9248;SDS011;4660;41.768;26.198;2022-08-26T05:50:43;21.67;;;4.03;;
9248;SDS011;4660;41.768;26.198;2022-08-26T05:53:13;12.63;;;4.07;;
9248;SDS011;4660;41.768;26.198;2022-08-26T05:55:41;12.13;;;3.72;;
9248;SDS011;4660;41.768;26.198;2022-08-26T05:58:09;11.98;;;3.03;;
9248;SDS011;4660;41.768;26.198;2022-08-26T06:00:35;12.18;;;3.25;;
9248;SDS011;4660;41.768;26.198;2022-08-26T06:03:02;15.15;;;3.92;;
9248;SDS011;4660;41.768;26.198;2022-08-26T06:05:28;13.90;;;3.90;;
9248;SDS011;4660;41.768;26.198;2022-08-26T06:07:54;13.32;;;4.50;;
9248;SDS011;4660;41.768;26.198;2022-08-26T06:10:41;21.42;;;6.28;;
9248;SDS011;4660;41.768;26.198;2022-08-26T06:13:09;13.98;;;5.60;;
9248;SDS011;4660;41.768;26.198;2022-08-26T06:15:42;18.25;;;5.63;;
9248;SDS011;4660;41.768;26.198;2022-08-26T06:18:10;10.52;;;5.32;;
9248;SDS011;4660;41.768;26.198;2022-08-26T06:20:36;12.73;;;5.35;;
9248;SDS011;4660;41.768;26.198;2022-08-26T06:23:09;16.05;;;4.97;;
9248;SDS011;4660;41.768;26.198;2022-08-26T06:25:55;12.13;;;5.13;;
9248;SDS011;4660;41.768;26.198;2022-08-26T06:28:21;16.85;;;5.45;;
9248;SDS011;4660;41.768;26.198;2022-08-26T06:30:49;13.88;;;5.68;;
9248;SDS011;4660;41.768;26.198;2022-08-26T06:33:14;10.40;;;5.30;;
9248;SDS011;4660;41.768;26.198;2022-08-26T06:35:40;9.43;;;5.05;;
9248;SDS011;4660;41.768;26.198;2022-08-26T06:38:07;12.35;;;5.28;;
9248;SDS011;4660;41.768;26.198;2022-08-26T06:40:39;18.55;;;5.10;;
9248;SDS011;4660;41.768;26.198;2022-08-26T06:43:09;15.57;;;5.55;;
9248;SDS011;4660;41.768;26.198;2022-08-26T06:45:37;16.85;;;5.32;;
9248;SDS011;4660;41.768;26.198;2022-08-26T06:48:05;13.50;;;5.32;;
9248;SDS011;4660;41.768;26.198;2022-08-26T06:50:34;17.55;;;5.22;;
9248;SDS011;4660;41.768;26.198;2022-08-26T06:53:00;19.05;;;6.00;;
9248;SDS011;4660;41.768;26.198;2022-08-26T06:55:26;16.77;;;5.22;;
9248;SDS011;4660;41.768;26.198;2022-08-26T06:57:54;13.13;;;5.47;;
9248;SDS011;4660;41.768;26.198;2022-08-26T07:00:20;16.77;;;5.53;;
9248;SDS011;4660;41.768;26.198;2022-08-26T07:02:46;10.48;;;5.10;;
9248;SDS011;4660;41.768;26.198;2022-08-26T07:05:12;11.57;;;5.25;;
9248;SDS011;4660;41.768;26.198;2022-08-26T07:07:38;14.95;;;6.63;;
9248;SDS011;4660;41.768;26.198;2022-08-26T07:10:04;11.80;;;5.22;;
9248;SDS011;4660;41.768;26.198;2022-08-26T07:12:30;18.90;;;5.90;;
9248;SDS011;4660;41.768;26.198;2022-08-26T07:14:56;13.13;;;5.80;;
9248;SDS011;4660;41.768;26.198;2022-08-26T07:17:22;13.27;;;5.93;;
9248;SDS011;4660;41.768;26.198;2022-08-26T07:19:47;16.35;;;5.78;;
9248;SDS011;4660;41.768;26.198;2022-08-26T07:22:13;19.23;;;5.80;;
9248;SDS011;4660;41.768;26.198;2022-08-26T07:24:39;17.27;;;5.22;;
9248;SDS011;4660;41.768;26.198;2022-08-26T07:27:07;13.05;;;5.32;;
9248;SDS011;4660;41.768;26.198;2022-08-26T07:29:37;14.77;;;5.85;;
9248;SDS011;4660;41.768;26.198;2022-08-26T07:32:04;17.05;;;4.63;;
9248;SDS011;4660;41.768;26.198;2022-08-26T07:34:32;18.88;;;4.78;;
9248;SDS011;4660;41.768;26.198;2022-08-26T07:36:59;11.00;;;4.75;;
9248;SDS011;4660;41.768;26.198;2022-08-26T07:39:25;15.77;;;5.00;;
9248;SDS011;4660;41.768;26.198;2022-08-26T07:41:52;17.75;;;4.82;;
9248;SDS011;4660;41.768;26.198;2022-08-26T07:44:18;13.52;;;4.43;;
9248;SDS011;4660;41.768;26.198;2022-08-26T07:46:43;6.95;;;4.28;;
9248;SDS011;4660;41.768;26.198;2022-08-26T07:49:09;20.02;;;4.70;;
9248;SDS011;4660;41.768;26.198;2022-08-26T07:51:36;17.80;;;4.72;;
9248;SDS011;4660;41.768;26.198;2022-08-26T07:54:02;12.35;;;4.40;;
9248;SDS011;4660;41.768;26.198;2022-08-26T07:56:29;22.50;;;4.70;;
9248;SDS011;4660;41.768;26.198;2022-08-26T07:58:55;13.95;;;5.05;;
9248;SDS011;4660;41.768;26.198;2022-08-26T08:01:22;8.13;;;4.55;;
9248;SDS011;4660;41.768;26.198;2022-08-26T08:03:50;13.43;;;5.45;;
9248;SDS011;4660;41.768;26.198;2022-08-26T08:06:18;13.35;;;4.70;;
9248;SDS011;4660;41.768;26.198;2022-08-26T08:08:46;9.15;;;4.93;;
9248;SDS011;4660;41.768;26.198;2022-08-26T08:11:12;17.05;;;5.60;;
9248;SDS011;4660;41.768;26.198;2022-08-26T08:13:38;13.02;;;4.82;;
9248;SDS011;4660;41.768;26.198;2022-08-26T08:16:04;14.38;;;5.30;;
9248;SDS011;4660;41.768;26.198;2022-08-26T08:18:31;18.50;;;6.22;;
9248;SDS011;4660;41.768;26.198;2022-08-26T08:20:58;10.30;;;5.63;;
9248;SDS011;4660;41.768;26.198;2022-08-26T08:23:27;12.85;;;5.30;;
9248;SDS011;4660;41.768;26.198;2022-08-26T08:26:00;21.08;;;6.47;;
9248;SDS011;4660;41.768;26.198;2022-08-26T08:28:30;10.00;;;5.88;;
9248;SDS011;4660;41.768;26.198;2022-08-26T08:30:56;14.15;;;5.38;;
9248;SDS011;4660;41.768;26.198;2022-08-26T08:33:22;18.73;;;5.68;;
9248;SDS011;4660;41.768;26.198;2022-08-26T08:35:48;18.30;;;5.55;;
9248;SDS011;4660;41.768;26.198;2022-08-26T08:38:14;15.25;;;6.13;;
9248;SDS011;4660;41.768;26.198;2022-08-26T08:40:41;14.05;;;5.50;;
9248;SDS011;4660;41.768;26.198;2022-08-26T08:43:10;16.77;;;5.72;;
9248;SDS011;4660;41.768;26.198;2022-08-26T08:48:23;18.42;;;5.97;;
9248;SDS011;4660;41.768;26.198;2022-08-26T08:51:07;11.88;;;6.18;;
9248;SDS011;4660;41.768;26.198;2022-08-26T08:53:44;15.57;;;6.40;;
9248;SDS011;4660;41.768;26.198;2022-08-26T09:06:46;16.55;;;6.07;;
9248;SDS011;4660;41.768;26.198;2022-08-26T09:09:35;17.38;;;6.82;;
9248;SDS011;4660;41.768;26.198;2022-08-26T09:12:04;13.88;;;5.45;;
9248;SDS011;4660;41.768;26.198;2022-08-26T09:14:35;19.25;;;6.35;;
9248;SDS011;4660;41.768;26.198;2022-08-26T09:17:10;19.60;;;6.13;;
9248;SDS011;4660;41.768;26.198;2022-08-26T09:19:48;26.25;;;5.55;;
9248;SDS011;4660;41.768;26.198;2022-08-26T09:22:27;16.20;;;4.80;;
9248;SDS011;4660;41.768;26.198;2022-08-26T09:24:59;18.75;;;5.20;;
9248;SDS011;4660;41.768;26.198;2022-08-26T09:30:27;17.58;;;5.43;;
9248;SDS011;4660;41.768;26.198;2022-08-26T09:32:59;15.65;;;4.60;;
9248;SDS011;4660;41.768;26.198;2022-08-26T09:35:34;16.60;;;5.07;;
9248;SDS011;4660;41.768;26.198;2022-08-26T09:38:19;11.15;;;4.47;;
9248;SDS011;4660;41.768;26.198;2022-08-26T09:43:25;13.90;;;4.45;;
9248;SDS011;4660;41.768;26.198;2022-08-26T09:45:54;17.02;;;4.13;;
9248;SDS011;4660;41.768;26.198;2022-08-26T09:48:40;15.45;;;5.03;;
9248;SDS011;4660;41.768;26.198;2022-08-26T09:51:30;9.63;;;3.85;;
9248;SDS011;4660;41.768;26.198;2022-08-26T09:53:58;14.57;;;5.07;;
9248;SDS011;4660;41.768;26.198;2022-08-26T09:56:27;14.65;;;4.40;;
9248;SDS011;4660;41.768;26.198;2022-08-26T09:58:57;10.80;;;3.95;;
9248;SDS011;4660;41.768;26.198;2022-08-26T10:01:31;15.35;;;3.47;;
9248;SDS011;4660;41.768;26.198;2022-08-26T10:06:28;20.00;;;3.65;;
9248;SDS011;4660;41.768;26.198;2022-08-26T10:08:55;16.33;;;3.90;;
9248;SDS011;4660;41.768;26.198;2022-08-26T10:11:26;22.45;;;4.18;;
9248;SDS011;4660;41.768;26.198;2022-08-26T10:14:11;15.27;;;3.85;;
9248;SDS011;4660;41.768;26.198;2022-08-26T10:20:03;15.95;;;4.00;;
9248;SDS011;4660;41.768;26.198;2022-08-26T10:25:15;17.45;;;4.72;;
9248;SDS011;4660;41.768;26.198;2022-08-26T10:27:51;9.80;;;3.30;;
9248;SDS011;4660;41.768;26.198;2022-08-26T10:30:26;11.95;;;4.00;;
9248;SDS011;4660;41.768;26.198;2022-08-26T10:32:56;15.00;;;4.00;;
9248;SDS011;4660;41.768;26.198;2022-08-26T10:35:27;15.63;;;3.60;;
9248;SDS011;4660;41.768;26.198;2022-08-26T10:37:55;10.00;;;3.53;;
9248;SDS011;4660;41.768;26.198;2022-08-26T10:40:45;10.80;;;3.55;;
9248;SDS011;4660;41.768;26.198;2022-08-26T10:43:18;10.80;;;3.72;;
9248;SDS011;4660;41.768;26.198;2022-08-26T10:45:49;12.85;;;3.40;;
9248;SDS011;4660;41.768;26.198;2022-08-26T10:51:22;11.05;;;2.95;;
9248;SDS011;4660;41.768;26.198;2022-08-26T10:54:14;12.45;;;4.18;;
9248;SDS011;4660;41.768;26.198;2022-08-26T11:03:12;10.43;;;3.83;;
9248;SDS011;4660;41.768;26.198;2022-08-26T11:08:45;12.52;;;3.47;;
9248;SDS011;4660;41.768;26.198;2022-08-26T11:14:06;11.55;;;3.67;;
9248;SDS011;4660;41.768;26.198;2022-08-26T11:16:37;10.75;;;3.20;;
9248;SDS011;4660;41.768;26.198;2022-08-26T11:19:55;18.75;;;3.90;;
9248;SDS011;4660;41.768;26.198;2022-08-26T11:22:07;14.27;;;3.40;;
9248;SDS011;4660;41.768;26.198;2022-08-26T11:30:04;14.02;;;4.05;;
9248;SDS011;4660;41.768;26.198;2022-08-26T11:35:00;13.55;;;4.43;;
9248;SDS011;4660;41.768;26.198;2022-08-26T11:37:29;14.75;;;3.67;;
9248;SDS011;4660;41.768;26.198;2022-08-26T11:39:57;11.02;;;3.97;;
9248;SDS011;4660;41.768;26.198;2022-08-26T11:42:29;10.15;;;3.50;;
9248;SDS011;4660;41.768;26.198;2022-08-26T11:48:19;15.88;;;3.35;;
9248;SDS011;4660;41.768;26.198;2022-08-26T11:53:48;20.77;;;3.85;;
9248;SDS011;4660;41.768;26.198;2022-08-26T11:58:48;14.23;;;3.72;;
9248;SDS011;4660;41.768;26.198;2022-08-26T12:01:26;9.65;;;3.25;;
9248;SDS011;4660;41.768;26.198;2022-08-26T12:03:56;15.40;;;3.10;;
9248;SDS011;4660;41.768;26.198;2022-08-26T12:06:25;14.23;;;3.67;;
9248;SDS011;4660;41.768;26.198;2022-08-26T12:08:55;14.07;;;2.90;;
9248;SDS011;4660;41.768;26.198;2022-08-26T12:11:27;12.25;;;3.85;;
9248;SDS011;4660;41.768;26.198;2022-08-26T12:13:59;15.55;;;3.60;;
9248;SDS011;4660;41.768;26.198;2022-08-26T12:16:33;19.17;;;3.40;;
9248;SDS011;4660;41.768;26.198;2022-08-26T12:19:19;12.80;;;3.03;;
9248;SDS011;4660;41.768;26.198;2022-08-26T12:22:01;37.35;;;11.75;;
9248;SDS011;4660;41.768;26.198;2022-08-26T12:24:48;15.10;;;3.42;;
9248;SDS011;4660;41.768;26.198;2022-08-26T12:30:08;20.25;;;4.20;;
9248;SDS011;4660;41.768;26.198;2022-08-26T12:32:32;18.20;;;4.63;;
9248;SDS011;4660;41.768;26.198;2022-08-26T12:35:00;15.25;;;3.92;;
9248;SDS011;4660;41.768;26.198;2022-08-26T12:37:27;20.35;;;4.45;;
9248;SDS011;4660;41.768;26.198;2022-08-26T12:42:52;15.45;;;4.40;;
9248;SDS011;4660;41.768;26.198;2022-08-26T12:48:24;15.18;;;4.03;;
9248;SDS011;4660;41.768;26.198;2022-08-26T12:50:54;8.82;;;3.85;;
9248;SDS011;4660;41.768;26.198;2022-08-26T12:53:28;15.10;;;4.47;;
9248;SDS011;4660;41.768;26.198;2022-08-26T12:58:32;16.55;;;4.28;;
9248;SDS011;4660;41.768;26.198;2022-08-26T13:09:04;9.93;;;3.58;;
9248;SDS011;4660;41.768;26.198;2022-08-26T13:11:57;9.55;;;3.83;;
9248;SDS011;4660;41.768;26.198;2022-08-26T13:14:27;14.95;;;4.10;;
9248;SDS011;4660;41.768;26.198;2022-08-26T13:16:52;19.63;;;5.00;;
9248;SDS011;4660;41.768;26.198;2022-08-26T13:19:20;13.75;;;4.68;;
9248;SDS011;4660;41.768;26.198;2022-08-26T13:21:50;17.58;;;3.95;;
9248;SDS011;4660;41.768;26.198;2022-08-26T13:24:19;13.35;;;3.80;;
9248;SDS011;4660;41.768;26.198;2022-08-26T13:26:50;9.80;;;3.80;;
9248;SDS011;4660;41.768;26.198;2022-08-26T13:29:16;13.20;;;4.30;;
9248;SDS011;4660;41.768;26.198;2022-08-26T13:31:45;13.68;;;4.47;;
9248;SDS011;4660;41.768;26.198;2022-08-26T13:34:13;13.90;;;4.75;;
9248;SDS011;4660;41.768;26.198;2022-08-26T13:36:47;12.40;;;4.45;;
9248;SDS011;4660;41.768;26.198;2022-08-26T13:39:15;18.92;;;4.72;;
9248;SDS011;4660;41.768;26.198;2022-08-26T13:41:43;12.10;;;4.50;;
9248;SDS011;4660;41.768;26.198;2022-08-26T13:44:10;19.38;;;5.18;;
9248;SDS011;4660;41.768;26.198;2022-08-26T13:46:36;17.92;;;5.32;;
9248;SDS011;4660;41.768;26.198;2022-08-26T13:49:04;12.73;;;4.45;;
9248;SDS011;4660;41.768;26.198;2022-08-26T13:51:31;17.45;;;4.30;;
9248;SDS011;4660;41.768;26.198;2022-08-26T13:53:57;14.65;;;4.32;;
9248;SDS011;4660;41.768;26.198;2022-08-26T13:56:24;18.30;;;4.47;;
9248;SDS011;4660;41.768;26.198;2022-08-26T13:58:51;14.02;;;4.05;;
9248;SDS011;4660;41.768;26.198;2022-08-26T14:01:18;15.68;;;3.92;;
9248;SDS011;4660;41.768;26.198;2022-08-26T14:03:44;8.40;;;3.53;;
9248;SDS011;4660;41.768;26.198;2022-08-26T14:06:12;13.70;;;4.18;;
9248;SDS011;4660;41.768;26.198;2022-08-26T14:08:54;13.10;;;4.25;;
9248;SDS011;4660;41.768;26.198;2022-08-26T14:11:20;13.48;;;4.85;;
9248;SDS011;4660;41.768;26.198;2022-08-26T14:13:47;10.77;;;4.10;;
9248;SDS011;4660;41.768;26.198;2022-08-26T14:16:19;15.32;;;5.13;;
9248;SDS011;4660;41.768;26.198;2022-08-26T14:18:48;12.00;;;4.10;;
9248;SDS011;4660;41.768;26.198;2022-08-26T14:21:14;16.15;;;3.38;;
9248;SDS011;4660;41.768;26.198;2022-08-26T14:23:43;11.35;;;3.70;;
9248;SDS011;4660;41.768;26.198;2022-08-26T14:26:11;15.15;;;4.15;;
9248;SDS011;4660;41.768;26.198;2022-08-26T14:28:37;12.85;;;3.35;;
9248;SDS011;4660;41.768;26.198;2022-08-26T14:31:03;18.83;;;4.00;;
9248;SDS011;4660;41.768;26.198;2022-08-26T14:33:30;12.25;;;4.00;;
9248;SDS011;4660;41.768;26.198;2022-08-26T14:36:00;18.02;;;4.32;;
9248;SDS011;4660;41.768;26.198;2022-08-26T14:38:46;17.42;;;4.35;;
9248;SDS011;4660;41.768;26.198;2022-08-26T14:41:12;21.27;;;4.65;;
9248;SDS011;4660;41.768;26.198;2022-08-26T14:43:42;17.10;;;4.10;;
9248;SDS011;4660;41.768;26.198;2022-08-26T14:46:32;12.45;;;4.45;;
9248;SDS011;4660;41.768;26.198;2022-08-26T14:49:02;10.10;;;4.05;;
9248;SDS011;4660;41.768;26.198;2022-08-26T14:51:28;6.68;;;3.92;;
9248;SDS011;4660;41.768;26.198;2022-08-26T14:54:32;13.05;;;4.18;;
9248;SDS011;4660;41.768;26.198;2022-08-26T14:57:19;18.10;;;3.70;;
9248;SDS011;4660;41.768;26.198;2022-08-26T14:59:45;10.32;;;3.83;;
9248;SDS011;4660;41.768;26.198;2022-08-26T15:02:13;13.45;;;3.88;;
9248;SDS011;4660;41.768;26.198;2022-08-26T15:04:58;8.88;;;3.80;;
9248;SDS011;4660;41.768;26.198;2022-08-26T15:07:35;16.38;;;3.95;;
9248;SDS011;4660;41.768;26.198;2022-08-26T15:10:20;9.18;;;3.85;;
9248;SDS011;4660;41.768;26.198;2022-08-26T15:12:52;14.70;;;3.90;;
9248;SDS011;4660;41.768;26.198;2022-08-26T15:15:20;17.23;;;4.15;;
9248;SDS011;4660;41.768;26.198;2022-08-26T15:17:55;12.85;;;4.22;;
9248;SDS011;4660;41.768;26.198;2022-08-26T15:20:36;12.60;;;3.53;;
9248;SDS011;4660;41.768;26.198;2022-08-26T15:23:03;13.38;;;3.83;;
9248;SDS011;4660;41.768;26.198;2022-08-26T15:25:31;9.10;;;3.17;;
9248;SDS011;4660;41.768;26.198;2022-08-26T15:27:57;13.82;;;3.60;;
9248;SDS011;4660;41.768;26.198;2022-08-26T15:30:26;13.82;;;3.67;;
9248;SDS011;4660;41.768;26.198;2022-08-26T15:32:52;8.93;;;3.17;;
9248;SDS011;4660;41.768;26.198;2022-08-26T15:35:18;12.10;;;3.78;;
9248;SDS011;4660;41.768;26.198;2022-08-26T15:37:49;11.38;;;4.28;;
9248;SDS011;4660;41.768;26.198;2022-08-26T15:40:15;18.13;;;4.38;;
9248;SDS011;4660;41.768;26.198;2022-08-26T15:42:42;10.57;;;3.92;;
9248;SDS011;4660;41.768;26.198;2022-08-26T15:45:10;12.15;;;4.28;;
9248;SDS011;4660;41.768;26.198;2022-08-26T15:47:43;11.70;;;3.45;;
9248;SDS011;4660;41.768;26.198;2022-08-26T15:50:09;18.58;;;3.90;;
9248;SDS011;4660;41.768;26.198;2022-08-26T15:52:36;7.80;;;3.60;;
9248;SDS011;4660;41.768;26.198;2022-08-26T15:55:11;15.57;;;4.85;;
9248;SDS011;4660;41.768;26.198;2022-08-26T15:57:37;14.35;;;4.03;;
9248;SDS011;4660;41.768;26.198;2022-08-26T16:00:04;17.58;;;3.85;;
9248;SDS011;4660;41.768;26.198;2022-08-26T16:02:52;13.20;;;3.97;;
9248;SDS011;4660;41.768;26.198;2022-08-26T16:05:19;9.90;;;3.35;;
9248;SDS011;4660;41.768;26.198;2022-08-26T16:07:45;12.52;;;4.40;;
9248;SDS011;4660;41.768;26.198;2022-08-26T16:10:12;23.02;;;4.68;;
9248;SDS011;4660;41.768;26.198;2022-08-26T16:12:38;17.77;;;4.07;;
9248;SDS011;4660;41.768;26.198;2022-08-26T16:15:06;20.35;;;3.75;;
9248;SDS011;4660;41.768;26.198;2022-08-26T16:17:37;27.80;;;6.03;;
9248;SDS011;4660;41.768;26.198;2022-08-26T16:20:05;15.30;;;5.57;;
9248;SDS011;4660;41.768;26.198;2022-08-26T16:22:32;16.85;;;5.80;;
9248;SDS011;4660;41.768;26.198;2022-08-26T16:24:58;23.00;;;6.32;;
9248;SDS011;4660;41.768;26.198;2022-08-26T16:27:43;17.50;;;5.07;;
9248;SDS011;4660;41.768;26.198;2022-08-26T16:30:18;16.90;;;5.95;;
9248;SDS011;4660;41.768;26.198;2022-08-26T16:32:49;14.25;;;5.15;;